sensor_id;sensor_type;location;lat;lon;timestamp;pressure;altitude;pressure_sealevel;temperature;humidity
6128;BME280;7073;42.672;23.256;2023-04-01T00:00:24;93494.03;;;13.03;61.71
6128;BME280;7073;42.672;23.256;2023-04-01T00:02:51;93500.25;;;13.28;61.68
6128;BME280;7073;42.672;23.256;2023-04-01T00:05:18;93495.81;;;13.29;62.35
6128;BME280;7073;42.672;23.256;2023-04-01T00:07:45;93502.84;;;13.23;63.85
6128;BME280;7073;42.672;23.256;2023-04-01T00:10:13;93493.69;;;13.26;63.83
6128;BME280;7073;42.672;23.256;2023-04-01T00:12:40;93503.88;;;13.22;63.98
6128;BME280;7073;42.672;23.256;2023-04-01T00:15:11;93502.06;;;13.28;64.41
6128;BME280;7073;42.672;23.256;2023-04-01T00:17:38;93508.75;;;12.77;66.42
6128;BME280;7073;42.672;23.256;2023-04-01T00:20:06;93506.72;;;12.84;66.32
6128;BME280;7073;42.672;23.256;2023-04-01T00:22:33;93516.78;;;12.70;67.94
6128;BME280;7073;42.672;23.256;2023-04-01T00:25:00;93502.75;;;12.76;67.71
6128;BME280;7073;42.672;23.256;2023-04-01T00:27:27;93494.38;;;12.48;69.84
6128;BME280;7073;42.672;23.256;2023-04-01T00:29:54;93510.47;;;12.35;70.26
6128;BME280;7073;42.672;23.256;2023-04-01T00:32:22;93502.47;;;12.46;69.33
6128;BME280;7073;42.672;23.256;2023-04-01T00:34:50;93500.13;;;12.76;68.04
6128;BME280;7073;42.672;23.256;2023-04-01T00:37:18;93497.63;;;12.92;66.62
6128;BME280;7073;42.672;23.256;2023-04-01T00:39:45;93493.94;;;12.56;69.08
6128;BME280;7073;42.672;23.256;2023-04-01T00:42:12;93495.22;;;12.26;70.38
6128;BME280;7073;42.672;23.256;2023-04-01T00:44:39;93477.34;;;12.40;70.78
6128;BME280;7073;42.672;23.256;2023-04-01T00:47:06;93478.03;;;12.31;70.29
6128;BME280;7073;42.672;23.256;2023-04-01T00:49:37;93480.63;;;12.31;69.12
6128;BME280;7073;42.672;23.256;2023-04-01T00:52:07;93487.88;;;12.50;69.45
6128;BME280;7073;42.672;23.256;2023-04-01T00:54:35;93488.16;;;12.54;69.36
6128;BME280;7073;42.672;23.256;2023-04-01T00:57:06;93462.75;;;12.44;69.37
6128;BME280;7073;42.672;23.256;2023-04-01T00:59:38;93464.63;;;12.54;69.06
6128;BME280;7073;42.672;23.256;2023-04-01T01:02:09;93467.50;;;12.52;69.00
6128;BME280;7073;42.672;23.256;2023-04-01T01:04:38;93450.22;;;12.46;68.54
6128;BME280;7073;42.672;23.256;2023-04-01T01:07:13;93456.56;;;12.23;68.95
6128;BME280;7073;42.672;23.256;2023-04-01T01:09:50;93442.38;;;12.46;68.34
6128;BME280;7073;42.672;23.256;2023-04-01T01:12:25;93434.91;;;12.60;68.57
6128;BME280;7073;42.672;23.256;2023-04-01T01:15:06;93440.06;;;12.50;67.52
6128;BME280;7073;42.672;23.256;2023-04-01T01:17:44;93436.38;;;12.46;67.33
6128;BME280;7073;42.672;23.256;2023-04-01T01:26:13;93426.88;;;12.35;67.35
6128;BME280;7073;42.672;23.256;2023-04-01T01:28:53;93407.19;;;12.22;68.13
6128;BME280;7073;42.672;23.256;2023-04-01T01:31:34;93402.47;;;11.92;67.22
6128;BME280;7073;42.672;23.256;2023-04-01T01:34:11;93402.22;;;11.94;67.62
6128;BME280;7073;42.672;23.256;2023-04-01T01:36:48;93422.88;;;12.22;66.59
6128;BME280;7073;42.672;23.256;2023-04-01T01:39:17;93423.88;;;12.21;65.73
6128;BME280;7073;42.672;23.256;2023-04-01T01:41:47;93412.69;;;12.25;65.43
6128;BME280;7073;42.672;23.256;2023-04-01T01:44:16;93417.53;;;12.44;64.56
6128;BME280;7073;42.672;23.256;2023-04-01T01:46:44;93419.69;;;12.20;65.80
6128;BME280;7073;42.672;23.256;2023-04-01T01:49:12;93425.09;;;12.40;64.71
6128;BME280;7073;42.672;23.256;2023-04-01T01:51:41;93412.00;;;12.35;64.50
6128;BME280;7073;42.672;23.256;2023-04-01T01:54:13;93413.06;;;12.39;64.18
6128;BME280;7073;42.672;23.256;2023-04-01T01:56:41;93405.34;;;12.54;63.00
6128;BME280;7073;42.672;23.256;2023-04-01T01:59:09;93403.44;;;12.81;62.83
6128;BME280;7073;42.672;23.256;2023-04-01T02:01:39;93403.34;;;12.66;63.09
6128;BME280;7073;42.672;23.256;2023-04-01T02:04:09;93391.00;;;12.25;65.22
6128;BME280;7073;42.672;23.256;2023-04-01T02:06:38;93392.75;;;12.46;63.78
6128;BME280;7073;42.672;23.256;2023-04-01T02:09:08;93395.34;;;12.46;62.61
6128;BME280;7073;42.672;23.256;2023-04-01T02:11:41;93396.69;;;12.49;62.71
6128;BME280;7073;42.672;23.256;2023-04-01T02:14:13;93383.75;;;12.64;62.39
6128;BME280;7073;42.672;23.256;2023-04-01T02:16:45;93389.06;;;12.79;61.33
6128;BME280;7073;42.672;23.256;2023-04-01T02:19:15;93396.81;;;12.64;61.24
6128;BME280;7073;42.672;23.256;2023-04-01T02:21:49;93383.16;;;12.57;60.93
6128;BME280;7073;42.672;23.256;2023-04-01T02:24:19;93390.59;;;12.75;60.88
6128;BME280;7073;42.672;23.256;2023-04-01T02:26:50;93395.75;;;12.65;61.79
6128;BME280;7073;42.672;23.256;2023-04-01T02:29:19;93404.31;;;12.92;60.66
6128;BME280;7073;42.672;23.256;2023-04-01T02:31:47;93408.19;;;12.84;60.33
6128;BME280;7073;42.672;23.256;2023-04-01T02:34:15;93389.28;;;12.77;59.99
6128;BME280;7073;42.672;23.256;2023-04-01T02:36:42;93393.88;;;12.55;61.90
6128;BME280;7073;42.672;23.256;2023-04-01T02:39:09;93401.63;;;12.45;60.78
6128;BME280;7073;42.672;23.256;2023-04-01T02:41:40;93395.53;;;12.35;61.77
6128;BME280;7073;42.672;23.256;2023-04-01T02:44:09;93395.59;;;12.81;60.80
6128;BME280;7073;42.672;23.256;2023-04-01T02:46:35;93399.38;;;13.01;59.67
6128;BME280;7073;42.672;23.256;2023-04-01T02:49:03;93403.31;;;13.03;59.64
6128;BME280;7073;42.672;23.256;2023-04-01T02:51:31;93407.47;;;12.57;59.83
6128;BME280;7073;42.672;23.256;2023-04-01T02:53:58;93414.03;;;12.65;58.78
6128;BME280;7073;42.672;23.256;2023-04-01T02:56:25;93415.69;;;12.76;57.96
6128;BME280;7073;42.672;23.256;2023-04-01T02:58:52;93420.00;;;12.97;57.29
6128;BME280;7073;42.672;23.256;2023-04-01T03:01:20;93425.38;;;13.17;56.30
6128;BME280;7073;42.672;23.256;2023-04-01T03:03:47;93430.03;;;12.68;57.97
6128;BME280;7073;42.672;23.256;2023-04-01T03:06:15;93428.00;;;12.80;57.62
6128;BME280;7073;42.672;23.256;2023-04-01T03:08:42;93427.22;;;13.17;56.26
6128;BME280;7073;42.672;23.256;2023-04-01T03:11:10;93427.72;;;13.09;57.05
6128;BME280;7073;42.672;23.256;2023-04-01T03:13:37;93427.19;;;13.12;57.81
6128;BME280;7073;42.672;23.256;2023-04-01T03:16:04;93417.41;;;12.97;58.61
6128;BME280;7073;42.672;23.256;2023-04-01T03:18:33;93430.69;;;12.22;62.42
6128;BME280;7073;42.672;23.256;2023-04-01T03:21:12;93433.41;;;12.32;62.18
6128;BME280;7073;42.672;23.256;2023-04-01T03:23:39;93446.31;;;12.49;61.14
6128;BME280;7073;42.672;23.256;2023-04-01T03:26:06;93428.09;;;12.22;62.67
6128;BME280;7073;42.672;23.256;2023-04-01T03:28:33;93428.00;;;12.44;61.40
6128;BME280;7073;42.672;23.256;2023-04-01T03:31:00;93446.00;;;13.09;56.56
6128;BME280;7073;42.672;23.256;2023-04-01T03:33:26;93434.69;;;13.45;55.01
6128;BME280;7073;42.672;23.256;2023-04-01T03:35:55;93423.00;;;13.68;54.56
6128;BME280;7073;42.672;23.256;2023-04-01T03:38:21;93415.44;;;13.71;56.55
6128;BME280;7073;42.672;23.256;2023-04-01T03:40:48;93396.59;;;13.79;55.21
6128;BME280;7073;42.672;23.256;2023-04-01T03:43:15;93387.97;;;13.84;56.76
6128;BME280;7073;42.672;23.256;2023-04-01T03:45:46;93372.81;;;14.01;55.66
6128;BME280;7073;42.672;23.256;2023-04-01T03:48:13;93359.97;;;14.09;55.96
6128;BME280;7073;42.672;23.256;2023-04-01T03:50:40;93344.25;;;14.15;61.82
6128;BME280;7073;42.672;23.256;2023-04-01T03:53:09;93330.13;;;14.10;62.13
6128;BME280;7073;42.672;23.256;2023-04-01T03:55:37;93337.59;;;13.41;65.22
6128;BME280;7073;42.672;23.256;2023-04-01T03:58:04;93327.97;;;13.72;64.85
6128;BME280;7073;42.672;23.256;2023-04-01T04:00:31;93316.34;;;13.23;65.34
6128;BME280;7073;42.672;23.256;2023-04-01T04:02:59;93322.78;;;13.00;66.54
6128;BME280;7073;42.672;23.256;2023-04-01T04:05:26;93318.38;;;13.06;67.17
6128;BME280;7073;42.672;23.256;2023-04-01T04:07:53;93299.09;;;12.70;68.35
6128;BME280;7073;42.672;23.256;2023-04-01T04:10:21;93293.72;;;12.92;68.34
6128;BME280;7073;42.672;23.256;2023-04-01T04:12:50;93285.88;;;12.92;69.31
6128;BME280;7073;42.672;23.256;2023-04-01T04:15:17;93302.38;;;12.45;72.15
6128;BME280;7073;42.672;23.256;2023-04-01T04:17:44;93293.94;;;12.33;72.66
6128;BME280;7073;42.672;23.256;2023-04-01T04:20:11;93298.88;;;12.30;72.32
6128;BME280;7073;42.672;23.256;2023-04-01T04:22:38;93309.75;;;12.53;70.48
6128;BME280;7073;42.672;23.256;2023-04-01T04:25:06;93293.34;;;12.21;71.89
6128;BME280;7073;42.672;23.256;2023-04-01T04:27:34;93275.81;;;12.16;74.12
6128;BME280;7073;42.672;23.256;2023-04-01T04:30:02;93287.75;;;12.49;73.65
6128;BME280;7073;42.672;23.256;2023-04-01T04:32:29;93281.47;;;12.45;73.91
6128;BME280;7073;42.672;23.256;2023-04-01T04:34:56;93273.69;;;12.55;73.26
6128;BME280;7073;42.672;23.256;2023-04-01T04:37:23;93266.38;;;12.10;76.33
6128;BME280;7073;42.672;23.256;2023-04-01T04:39:51;93274.53;;;12.19;77.73
6128;BME280;7073;42.672;23.256;2023-04-01T04:42:17;93272.41;;;12.58;74.63
6128;BME280;7073;42.672;23.256;2023-04-01T04:44:46;93263.16;;;12.35;75.44
6128;BME280;7073;42.672;23.256;2023-04-01T04:47:12;93261.41;;;12.09;77.38
6128;BME280;7073;42.672;23.256;2023-04-01T04:49:39;93252.97;;;12.39;76.46
6128;BME280;7073;42.672;23.256;2023-04-01T04:52:06;93252.81;;;12.60;73.86
6128;BME280;7073;42.672;23.256;2023-04-01T04:54:33;93251.78;;;12.61;73.89
6128;BME280;7073;42.672;23.256;2023-04-01T04:57:00;93252.47;;;12.00;74.86
6128;BME280;7073;42.672;23.256;2023-04-01T04:59:27;93248.41;;;12.19;73.00
6128;BME280;7073;42.672;23.256;2023-04-01T05:01:55;93246.91;;;12.33;72.64
6128;BME280;7073;42.672;23.256;2023-04-01T05:04:22;93254.13;;;12.16;72.53
6128;BME280;7073;42.672;23.256;2023-04-01T05:06:49;93252.13;;;12.28;72.44
6128;BME280;7073;42.672;23.256;2023-04-01T05:09:17;93249.53;;;12.33;72.41
6128;BME280;7073;42.672;23.256;2023-04-01T05:11:44;93233.53;;;11.83;75.06
6128;BME280;7073;42.672;23.256;2023-04-01T05:14:14;93236.41;;;12.23;73.50
6128;BME280;7073;42.672;23.256;2023-04-01T05:16:41;93222.50;;;12.07;74.58
6128;BME280;7073;42.672;23.256;2023-04-01T05:19:09;93208.06;;;11.63;77.47
6128;BME280;7073;42.672;23.256;2023-04-01T05:21:36;93212.91;;;11.81;76.38
6128;BME280;7073;42.672;23.256;2023-04-01T05:24:03;93219.41;;;11.74;75.67
6128;BME280;7073;42.672;23.256;2023-04-01T05:26:30;93197.75;;;11.46;77.86
6128;BME280;7073;42.672;23.256;2023-04-01T05:28:57;93207.34;;;11.41;78.72
6128;BME280;7073;42.672;23.256;2023-04-01T05:31:24;93213.94;;;11.48;77.62
6128;BME280;7073;42.672;23.256;2023-04-01T05:33:51;93215.19;;;11.73;78.90
6128;BME280;7073;42.672;23.256;2023-04-01T05:36:20;93218.41;;;12.21;75.39
6128;BME280;7073;42.672;23.256;2023-04-01T05:38:47;93204.09;;;12.34;72.47
6128;BME280;7073;42.672;23.256;2023-04-01T05:41:14;93209.06;;;12.36;72.20
6128;BME280;7073;42.672;23.256;2023-04-01T05:44:00;93211.97;;;12.44;70.38
6128;BME280;7073;42.672;23.256;2023-04-01T05:46:29;93212.41;;;12.88;69.13
6128;BME280;7073;42.672;23.256;2023-04-01T05:48:57;93209.56;;;13.00;64.87
6128;BME280;7073;42.672;23.256;2023-04-01T05:51:27;93193.56;;;12.81;67.70
6128;BME280;7073;42.672;23.256;2023-04-01T05:53:54;93178.97;;;12.85;67.25
6128;BME280;7073;42.672;23.256;2023-04-01T05:56:22;93170.69;;;13.23;64.36
6128;BME280;7073;42.672;23.256;2023-04-01T05:58:51;93199.13;;;13.00;63.08
6128;BME280;7073;42.672;23.256;2023-04-01T06:01:19;93202.34;;;13.57;61.38
6128;BME280;7073;42.672;23.256;2023-04-01T06:03:47;93169.13;;;13.42;62.63
6128;BME280;7073;42.672;23.256;2023-04-01T06:06:23;93200.25;;;13.84;61.31
6128;BME280;7073;42.672;23.256;2023-04-01T06:08:52;93194.75;;;13.81;61.41
6128;BME280;7073;42.672;23.256;2023-04-01T06:11:25;93192.41;;;13.94;60.32
6128;BME280;7073;42.672;23.256;2023-04-01T06:14:11;93199.47;;;13.94;61.46
6128;BME280;7073;42.672;23.256;2023-04-01T06:16:56;93205.72;;;14.08;59.68
6128;BME280;7073;42.672;23.256;2023-04-01T06:19:41;93203.31;;;14.47;56.58
6128;BME280;7073;42.672;23.256;2023-04-01T06:25:24;93207.00;;;14.21;55.16
6128;BME280;7073;42.672;23.256;2023-04-01T06:28:07;93198.91;;;14.32;53.87
6128;BME280;7073;42.672;23.256;2023-04-01T06:30:43;93176.63;;;14.25;55.64
6128;BME280;7073;42.672;23.256;2023-04-01T06:33:32;93194.28;;;14.78;54.56
6128;BME280;7073;42.672;23.256;2023-04-01T06:36:16;93196.09;;;14.88;54.87
6128;BME280;7073;42.672;23.256;2023-04-01T06:39:16;93171.22;;;14.70;55.39
6128;BME280;7073;42.672;23.256;2023-04-01T06:42:10;93171.22;;;14.75;55.23
6128;BME280;7073;42.672;23.256;2023-04-01T06:44:48;93169.47;;;14.55;56.67
6128;BME280;7073;42.672;23.256;2023-04-01T06:47:32;93188.13;;;14.44;54.70
6128;BME280;7073;42.672;23.256;2023-04-01T06:50:08;93168.69;;;14.55;53.88
6128;BME280;7073;42.672;23.256;2023-04-01T06:52:45;93179.22;;;14.45;52.87
6128;BME280;7073;42.672;23.256;2023-04-01T06:55:25;93151.38;;;14.59;54.17
6128;BME280;7073;42.672;23.256;2023-04-01T06:57:58;93141.88;;;14.68;53.00
6128;BME280;7073;42.672;23.256;2023-04-01T07:00:29;93148.97;;;14.67;53.55
6128;BME280;7073;42.672;23.256;2023-04-01T07:03:05;93161.31;;;14.67;54.23
6128;BME280;7073;42.672;23.256;2023-04-01T07:05:34;93163.78;;;14.92;53.45
6128;BME280;7073;42.672;23.256;2023-04-01T07:08:04;93167.06;;;14.69;54.01
6128;BME280;7073;42.672;23.256;2023-04-01T07:10:40;93172.75;;;14.81;53.84
6128;BME280;7073;42.672;23.256;2023-04-01T07:13:15;93161.78;;;14.74;54.47
6128;BME280;7073;42.672;23.256;2023-04-01T07:15:46;93149.00;;;14.57;55.80
6128;BME280;7073;42.672;23.256;2023-04-01T07:18:21;93161.44;;;14.96;54.12
6128;BME280;7073;42.672;23.256;2023-04-01T07:20:48;93165.53;;;14.58;55.93
6128;BME280;7073;42.672;23.256;2023-04-01T07:23:21;93174.25;;;14.43;54.69
6128;BME280;7073;42.672;23.256;2023-04-01T07:25:52;93170.91;;;14.87;54.47
6128;BME280;7073;42.672;23.256;2023-04-01T07:28:23;93138.28;;;15.03;54.31
6128;BME280;7073;42.672;23.256;2023-04-01T07:31:01;93165.72;;;15.20;53.43
6128;BME280;7073;42.672;23.256;2023-04-01T07:33:38;93179.63;;;15.21;52.19
6128;BME280;7073;42.672;23.256;2023-04-01T07:36:08;93115.91;;;15.15;53.92
6128;BME280;7073;42.672;23.256;2023-04-01T07:38:52;93166.09;;;15.43;52.72
6128;BME280;7073;42.672;23.256;2023-04-01T07:41:29;93183.63;;;15.08;53.02
6128;BME280;7073;42.672;23.256;2023-04-01T07:44:10;93145.41;;;14.97;54.33
6128;BME280;7073;42.672;23.256;2023-04-01T07:46:59;93156.69;;;14.98;53.82
6128;BME280;7073;42.672;23.256;2023-04-01T07:49:35;93169.16;;;14.72;53.84
6128;BME280;7073;42.672;23.256;2023-04-01T07:52:12;93150.56;;;14.63;54.68
6128;BME280;7073;42.672;23.256;2023-04-01T07:54:49;93149.75;;;14.68;55.45
6128;BME280;7073;42.672;23.256;2023-04-01T07:57:23;93153.91;;;14.79;54.61
6128;BME280;7073;42.672;23.256;2023-04-01T07:59:59;93143.59;;;14.93;54.97
6128;BME280;7073;42.672;23.256;2023-04-01T08:02:33;93137.50;;;15.02;54.10
6128;BME280;7073;42.672;23.256;2023-04-01T08:05:14;93142.28;;;15.34;53.47
6128;BME280;7073;42.672;23.256;2023-04-01T08:07:53;93141.13;;;15.11;55.01
6128;BME280;7073;42.672;23.256;2023-04-01T08:10:29;93130.84;;;15.59;53.14
6128;BME280;7073;42.672;23.256;2023-04-01T08:13:04;93131.28;;;15.32;54.00
6128;BME280;7073;42.672;23.256;2023-04-01T08:15:38;93131.63;;;15.54;53.39
6128;BME280;7073;42.672;23.256;2023-04-01T08:18:19;93115.75;;;15.36;53.55
6128;BME280;7073;42.672;23.256;2023-04-01T08:20:55;93106.22;;;15.50;53.74
6128;BME280;7073;42.672;23.256;2023-04-01T08:23:26;93100.38;;;15.58;53.11
6128;BME280;7073;42.672;23.256;2023-04-01T08:25:56;93093.72;;;15.65;53.11
6128;BME280;7073;42.672;23.256;2023-04-01T08:28:29;93088.44;;;15.70;53.81
6128;BME280;7073;42.672;23.256;2023-04-01T08:31:01;93084.91;;;15.85;53.05
6128;BME280;7073;42.672;23.256;2023-04-01T08:33:32;93073.63;;;16.50;52.56
6128;BME280;7073;42.672;23.256;2023-04-01T08:36:03;93074.22;;;17.03;51.75
6128;BME280;7073;42.672;23.256;2023-04-01T08:38:33;93047.44;;;17.01;51.35
6128;BME280;7073;42.672;23.256;2023-04-01T08:41:10;93023.19;;;17.18;49.24
6128;BME280;7073;42.672;23.256;2023-04-01T08:43:59;93044.78;;;17.34;49.97
6128;BME280;7073;42.672;23.256;2023-04-01T08:46:51;93013.94;;;17.53;49.09
6128;BME280;7073;42.672;23.256;2023-04-01T08:49:48;93045.53;;;17.99;47.41
6128;BME280;7073;42.672;23.256;2023-04-01T08:52:31;93033.50;;;18.20;48.05
6128;BME280;7073;42.672;23.256;2023-04-01T08:55:28;93035.94;;;18.16;47.13
6128;BME280;7073;42.672;23.256;2023-04-01T08:58:11;93041.78;;;17.86;46.99
6128;BME280;7073;42.672;23.256;2023-04-01T09:00:49;93048.13;;;17.85;46.77
6128;BME280;7073;42.672;23.256;2023-04-01T09:03:37;93049.78;;;17.81;46.72
6128;BME280;7073;42.672;23.256;2023-04-01T09:06:35;93033.28;;;17.76;45.92
6128;BME280;7073;42.672;23.256;2023-04-01T09:09:39;93044.84;;;17.93;45.77
6128;BME280;7073;42.672;23.256;2023-04-01T09:12:29;93036.13;;;17.79;46.20
6128;BME280;7073;42.672;23.256;2023-04-01T09:18:28;93035.94;;;18.16;42.35
6128;BME280;7073;42.672;23.256;2023-04-01T09:21:17;93037.00;;;18.02;38.32
6128;BME280;7073;42.672;23.256;2023-04-01T09:24:14;93027.53;;;18.28;37.94
6128;BME280;7073;42.672;23.256;2023-04-01T09:27:03;93050.19;;;18.29;35.98
6128;BME280;7073;42.672;23.256;2023-04-01T09:35:23;93018.38;;;18.12;37.02
6128;BME280;7073;42.672;23.256;2023-04-01T09:37:57;93006.56;;;17.96;37.01
6128;BME280;7073;42.672;23.256;2023-04-01T09:40:35;93012.09;;;17.81;37.52
6128;BME280;7073;42.672;23.256;2023-04-01T09:43:26;92988.69;;;18.06;37.57
6128;BME280;7073;42.672;23.256;2023-04-01T09:46:03;92971.75;;;18.48;37.53
6128;BME280;7073;42.672;23.256;2023-04-01T09:51:38;92964.28;;;18.64;36.89
6128;BME280;7073;42.672;23.256;2023-04-01T09:54:23;92984.03;;;18.53;37.02
6128;BME280;7073;42.672;23.256;2023-04-01T09:57:49;92961.69;;;18.50;37.35
6128;BME280;7073;42.672;23.256;2023-04-01T10:10:15;92956.03;;;18.29;37.14
6128;BME280;7073;42.672;23.256;2023-04-01T10:13:23;92938.59;;;18.56;37.28
6128;BME280;7073;42.672;23.256;2023-04-01T10:19:16;92938.28;;;19.24;35.23
6128;BME280;7073;42.672;23.256;2023-04-01T10:28:12;92911.72;;;19.51;34.27
6128;BME280;7073;42.672;23.256;2023-04-01T10:37:03;92904.22;;;19.92;34.29
6128;BME280;7073;42.672;23.256;2023-04-01T10:40:15;92900.25;;;19.64;34.85
6128;BME280;7073;42.672;23.256;2023-04-01T10:43:06;92898.03;;;19.49;34.94
6128;BME280;7073;42.672;23.256;2023-04-01T10:46:05;92890.91;;;19.58;34.98
6128;BME280;7073;42.672;23.256;2023-04-01T10:52:01;92891.22;;;19.57;35.07
6128;BME280;7073;42.672;23.256;2023-04-01T10:54:43;92901.28;;;19.46;34.79
6128;BME280;7073;42.672;23.256;2023-04-01T10:57:31;92899.88;;;19.18;35.05
6128;BME280;7073;42.672;23.256;2023-04-01T11:00:30;92874.56;;;19.17;35.37
6128;BME280;7073;42.672;23.256;2023-04-01T11:06:34;92866.13;;;18.53;36.75
6128;BME280;7073;42.672;23.256;2023-04-01T11:13:07;92830.66;;;18.59;36.77
6128;BME280;7073;42.672;23.256;2023-04-01T11:16:04;92894.84;;;18.77;36.45
6128;BME280;7073;42.672;23.256;2023-04-01T11:19:20;92891.31;;;18.59;37.23
6128;BME280;7073;42.672;23.256;2023-04-01T11:22:00;92892.84;;;18.60;37.45
6128;BME280;7073;42.672;23.256;2023-04-01T11:25:14;92907.88;;;18.51;38.47
6128;BME280;7073;42.672;23.256;2023-04-01T11:28:00;92951.22;;;18.09;39.69
6128;BME280;7073;42.672;23.256;2023-04-01T11:30:44;92962.84;;;17.54;43.84
6128;BME280;7073;42.672;23.256;2023-04-01T11:33:20;92932.25;;;17.39;44.61
6128;BME280;7073;42.672;23.256;2023-04-01T11:36:03;92948.09;;;17.07;46.16
6128;BME280;7073;42.672;23.256;2023-04-01T11:38:49;92980.44;;;16.75;49.07
6128;BME280;7073;42.672;23.256;2023-04-01T11:41:26;93015.13;;;16.40;54.25
6128;BME280;7073;42.672;23.256;2023-04-01T11:44:10;93032.28;;;15.09;64.39
6128;BME280;7073;42.672;23.256;2023-04-01T11:46:47;93074.88;;;14.52;72.27
6128;BME280;7073;42.672;23.256;2023-04-01T11:49:37;93111.81;;;13.61;81.85
6128;BME280;7073;42.672;23.256;2023-04-01T11:52:18;93106.59;;;13.31;88.91
6128;BME280;7073;42.672;23.256;2023-04-01T11:55:02;93095.13;;;13.22;89.44
6128;BME280;7073;42.672;23.256;2023-04-01T11:57:51;93110.25;;;13.10;90.61
6128;BME280;7073;42.672;23.256;2023-04-01T12:03:42;93106.53;;;12.85;94.64
6128;BME280;7073;42.672;23.256;2023-04-01T12:06:16;93094.03;;;12.87;96.20
6128;BME280;7073;42.672;23.256;2023-04-01T12:08:52;93092.91;;;12.53;98.93
6128;BME280;7073;42.672;23.256;2023-04-01T12:11:27;93091.13;;;12.69;98.08
6128;BME280;7073;42.672;23.256;2023-04-01T12:14:01;93088.75;;;12.72;97.19
6128;BME280;7073;42.672;23.256;2023-04-01T12:16:41;93083.06;;;13.06;97.06
6128;BME280;7073;42.672;23.256;2023-04-01T12:19:17;93097.19;;;13.50;96.05
6128;BME280;7073;42.672;23.256;2023-04-01T12:21:56;93089.84;;;13.57;96.34
6128;BME280;7073;42.672;23.256;2023-04-01T12:24:41;93087.72;;;13.59;98.46
6128;BME280;7073;42.672;23.256;2023-04-01T12:27:29;93087.47;;;13.61;97.03
6128;BME280;7073;42.672;23.256;2023-04-01T12:30:29;93108.16;;;13.42;97.44
6128;BME280;7073;42.672;23.256;2023-04-01T12:33:10;93104.78;;;13.31;96.43
6128;BME280;7073;42.672;23.256;2023-04-01T12:35:55;93107.91;;;13.23;96.36
6128;BME280;7073;42.672;23.256;2023-04-01T12:38:31;93104.00;;;13.26;96.71
6128;BME280;7073;42.672;23.256;2023-04-01T12:41:08;93106.09;;;13.14;96.67
6128;BME280;7073;42.672;23.256;2023-04-01T12:43:59;93079.44;;;13.17;95.45
6128;BME280;7073;42.672;23.256;2023-04-01T12:46:41;93087.50;;;13.05;93.35
6128;BME280;7073;42.672;23.256;2023-04-01T12:49:26;93084.09;;;12.95;92.22
6128;BME280;7073;42.672;23.256;2023-04-01T12:52:07;93087.19;;;12.76;94.06
6128;BME280;7073;42.672;23.256;2023-04-01T12:55:14;93077.28;;;12.83;93.70
6128;BME280;7073;42.672;23.256;2023-04-01T13:01:26;93055.31;;;12.74;94.56
6128;BME280;7073;42.672;23.256;2023-04-01T13:04:29;93055.84;;;12.71;95.96
6128;BME280;7073;42.672;23.256;2023-04-01T13:10:02;93007.50;;;12.94;93.49
6128;BME280;7073;42.672;23.256;2023-04-01T13:12:44;93030.50;;;12.97;90.77
6128;BME280;7073;42.672;23.256;2023-04-01T13:15:24;93008.00;;;12.96;88.09
6128;BME280;7073;42.672;23.256;2023-04-01T13:17:59;93008.25;;;13.05;86.20
6128;BME280;7073;42.672;23.256;2023-04-01T13:20:41;93003.56;;;13.32;84.71
6128;BME280;7073;42.672;23.256;2023-04-01T13:23:19;92993.78;;;13.63;82.79
6128;BME280;7073;42.672;23.256;2023-04-01T13:25:54;93006.34;;;13.61;82.43
6128;BME280;7073;42.672;23.256;2023-04-01T13:28:29;93004.16;;;13.83;81.71
6128;BME280;7073;42.672;23.256;2023-04-01T13:31:02;93002.59;;;14.41;79.71
6128;BME280;7073;42.672;23.256;2023-04-01T13:33:39;92992.09;;;14.85;75.94
6128;BME280;7073;42.672;23.256;2023-04-01T13:36:17;92990.44;;;15.22;72.04
6128;BME280;7073;42.672;23.256;2023-04-01T13:41:56;92968.59;;;15.03;67.75
6128;BME280;7073;42.672;23.256;2023-04-01T13:44:32;92971.97;;;15.61;61.56
6128;BME280;7073;42.672;23.256;2023-04-01T13:47:12;92970.63;;;15.64;61.85
6128;BME280;7073;42.672;23.256;2023-04-01T13:50:17;92971.47;;;16.02;59.80
6128;BME280;7073;42.672;23.256;2023-04-01T13:53:16;92969.00;;;15.39;61.03
6128;BME280;7073;42.672;23.256;2023-04-01T13:55:54;92962.59;;;15.98;57.65
6128;BME280;7073;42.672;23.256;2023-04-01T14:01:25;92951.56;;;16.19;57.28
6128;BME280;7073;42.672;23.256;2023-04-01T14:07:00;92925.78;;;17.04;55.60
6128;BME280;7073;42.672;23.256;2023-04-01T14:09:45;92938.84;;;17.69;52.44
6128;BME280;7073;42.672;23.256;2023-04-01T14:12:26;92957.16;;;16.50;52.32
6128;BME280;7073;42.672;23.256;2023-04-01T14:15:07;92946.00;;;17.36;52.97
6128;BME280;7073;42.672;23.256;2023-04-01T14:17:57;92948.41;;;16.55;51.46
6128;BME280;7073;42.672;23.256;2023-04-01T14:20:36;92945.19;;;17.08;50.68
6128;BME280;7073;42.672;23.256;2023-04-01T14:23:45;92924.25;;;16.71;51.82
6128;BME280;7073;42.672;23.256;2023-04-01T14:26:22;92921.56;;;16.90;52.09
6128;BME280;7073;42.672;23.256;2023-04-01T14:28:59;92913.66;;;16.58;51.28
6128;BME280;7073;42.672;23.256;2023-04-01T14:31:44;92909.38;;;16.94;50.55
6128;BME280;7073;42.672;23.256;2023-04-01T14:34:28;92907.22;;;16.82;50.77
6128;BME280;7073;42.672;23.256;2023-04-01T14:37:19;92908.91;;;16.92;50.78
6128;BME280;7073;42.672;23.256;2023-04-01T14:40:16;92903.38;;;17.07;49.74
6128;BME280;7073;42.672;23.256;2023-04-01T14:43:06;92915.69;;;17.25;48.25
6128;BME280;7073;42.672;23.256;2023-04-01T14:48:38;92918.97;;;16.71;47.33
6128;BME280;7073;42.672;23.256;2023-04-01T14:51:13;92908.84;;;17.10;47.50
6128;BME280;7073;42.672;23.256;2023-04-01T14:53:44;92910.09;;;17.13;47.10
6128;BME280;7073;42.672;23.256;2023-04-01T14:56:37;92955.75;;;17.22;47.29
6128;BME280;7073;42.672;23.256;2023-04-01T14:59:09;92905.94;;;17.39;48.42
6128;BME280;7073;42.672;23.256;2023-04-01T15:01:46;92906.78;;;17.07;49.35
6128;BME280;7073;42.672;23.256;2023-04-01T15:04:32;92912.69;;;16.86;51.70
6128;BME280;7073;42.672;23.256;2023-04-01T15:07:17;92919.44;;;16.22;51.95
6128;BME280;7073;42.672;23.256;2023-04-01T15:09:54;92910.13;;;16.30;53.58
6128;BME280;7073;42.672;23.256;2023-04-01T15:12:26;92917.47;;;16.14;53.57
6128;BME280;7073;42.672;23.256;2023-04-01T15:15:09;92925.19;;;16.06;53.82